sensor_id;sensor_type;location;lat;lon;timestamp;P1;durP1;ratioP1;P2;durP2;ratioP2
23140;SDS011;11739;54.750;9.124;2022-11-20T00:01:23;2.80;;;2.22;;
23140;SDS011;11739;54.750;9.124;2022-11-20T00:03:51;3.78;;;2.30;;
23140;SDS011;11739;54.750;9.124;2022-11-20T00:06:18;3.90;;;2.95;;
23140;SDS011;11739;54.750;9.124;2022-11-20T00:08:45;4.40;;;2.47;;
23140;SDS011;11739;54.750;9.124;2022-11-20T00:11:13;4.05;;;2.05;;
23140;SDS011;11739;54.750;9.124;2022-11-20T00:13:44;3.72;;;2.40;;
23140;SDS011;11739;54.750;9.124;2022-11-20T00:16:12;5.50;;;2.63;;
23140;SDS011;11739;54.750;9.124;2022-11-20T00:18:42;5.32;;;3.05;;
23140;SDS011;11739;54.750;9.124;2022-11-20T00:21:10;5.20;;;2.50;;
23140;SDS011;11739;54.750;9.124;2022-11-20T00:23:42;3.85;;;2.65;;
23140;SDS011;11739;54.750;9.124;2022-11-20T00:26:09;2.78;;;2.38;;
23140;SDS011;11739;54.750;9.124;2022-11-20T00:28:37;3.28;;;2.47;;
23140;SDS011;11739;54.750;9.124;2022-11-20T00:31:05;3.20;;;2.50;;
23140;SDS011;11739;54.750;9.124;2022-11-20T00:33:41;3.92;;;2.80;;
23140;SDS011;11739;54.750;9.124;2022-11-20T00:36:13;2.70;;;2.50;;
23140;SDS011;11739;54.750;9.124;2022-11-20T00:38:43;3.97;;;2.65;;
23140;SDS011;11739;54.750;9.124;2022-11-20T00:41:14;3.03;;;2.50;;
23140;SDS011;11739;54.750;9.124;2022-11-20T00:43:43;5.70;;;2.85;;
23140;SDS011;11739;54.750;9.124;2022-11-20T00:46:12;4.50;;;2.75;;
23140;SDS011;11739;54.750;9.124;2022-11-20T00:48:40;2.47;;;2.28;;
23140;SDS011;11739;54.750;9.124;2022-11-20T00:51:07;3.70;;;2.40;;
23140;SDS011;11739;54.750;9.124;2022-11-20T00:53:34;3.63;;;2.53;;
23140;SDS011;11739;54.750;9.124;2022-11-20T00:56:01;3.95;;;2.30;;
23140;SDS011;11739;54.750;9.124;2022-11-20T00:58:32;3.47;;;2.55;;
23140;SDS011;11739;54.750;9.124;2022-11-20T01:01:04;3.35;;;2.58;;
23140;SDS011;11739;54.750;9.124;2022-11-20T01:03:32;2.85;;;2.35;;
23140;SDS011;11739;54.750;9.124;2022-11-20T01:06:03;6.47;;;2.83;;
23140;SDS011;11739;54.750;9.124;2022-11-20T01:08:32;3.95;;;2.40;;
23140;SDS011;11739;54.750;9.124;2022-11-20T01:11:00;2.85;;;2.10;;
23140;SDS011;11739;54.750;9.124;2022-11-20T01:13:28;4.80;;;2.28;;
23140;SDS011;11739;54.750;9.124;2022-11-20T01:16:16;3.35;;;2.50;;
23140;SDS011;11739;54.750;9.124;2022-11-20T01:18:50;4.82;;;2.50;;
23140;SDS011;11739;54.750;9.124;2022-11-20T01:21:19;4.28;;;2.30;;
23140;SDS011;11739;54.750;9.124;2022-11-20T01:23:47;5.05;;;3.30;;
23140;SDS011;11739;54.750;9.124;2022-11-20T01:26:16;2.72;;;2.00;;
23140;SDS011;11739;54.750;9.124;2022-11-20T01:28:43;4.05;;;2.10;;
23140;SDS011;11739;54.750;9.124;2022-11-20T01:31:11;3.25;;;2.33;;
23140;SDS011;11739;54.750;9.124;2022-11-20T01:33:40;2.53;;;2.33;;
23140;SDS011;11739;54.750;9.124;2022-11-20T01:36:08;2.78;;;2.15;;
23140;SDS011;11739;54.750;9.124;2022-11-20T01:38:34;4.82;;;2.40;;
23140;SDS011;11739;54.750;9.124;2022-11-20T01:41:01;4.93;;;2.95;;
23140;SDS011;11739;54.750;9.124;2022-11-20T01:43:28;6.20;;;2.75;;
23140;SDS011;11739;54.750;9.124;2022-11-20T01:50:56;3.80;;;2.55;;
23140;SDS011;11739;54.750;9.124;2022-11-20T01:53:24;4.75;;;2.35;;
23140;SDS011;11739;54.750;9.124;2022-11-20T01:55:52;2.33;;;2.10;;
23140;SDS011;11739;54.750;9.124;2022-11-20T01:58:21;3.20;;;2.50;;
23140;SDS011;11739;54.750;9.124;2022-11-20T02:00:52;4.57;;;2.20;;
23140;SDS011;11739;54.750;9.124;2022-11-20T02:03:19;3.15;;;2.45;;
23140;SDS011;11739;54.750;9.124;2022-11-20T02:05:47;2.95;;;2.58;;
23140;SDS011;11739;54.750;9.124;2022-11-20T02:08:22;2.72;;;2.30;;
23140;SDS011;11739;54.750;9.124;2022-11-20T02:10:49;2.92;;;2.58;;
23140;SDS011;11739;54.750;9.124;2022-11-20T02:13:16;4.63;;;4.13;;
23140;SDS011;11739;54.750;9.124;2022-11-20T02:16:01;4.18;;;2.45;;
23140;SDS011;11739;54.750;9.124;2022-11-20T02:18:28;3.10;;;2.58;;
23140;SDS011;11739;54.750;9.124;2022-11-20T02:20:58;4.00;;;2.50;;
23140;SDS011;11739;54.750;9.124;2022-11-20T02:23:39;2.53;;;2.10;;
23140;SDS011;11739;54.750;9.124;2022-11-20T02:26:17;2.50;;;2.30;;
23140;SDS011;11739;54.750;9.124;2022-11-20T02:28:44;3.40;;;2.40;;
23140;SDS011;11739;54.750;9.124;2022-11-20T02:31:11;2.53;;;2.00;;
23140;SDS011;11739;54.750;9.124;2022-11-20T02:33:37;3.67;;;2.45;;
23140;SDS011;11739;54.750;9.124;2022-11-20T02:36:04;3.55;;;2.47;;
23140;SDS011;11739;54.750;9.124;2022-11-20T02:38:31;4.28;;;2.67;;
23140;SDS011;11739;54.750;9.124;2022-11-20T02:40:57;5.60;;;2.47;;
23140;SDS011;11739;54.750;9.124;2022-11-20T02:43:24;3.08;;;2.55;;
23140;SDS011;11739;54.750;9.124;2022-11-20T02:45:50;2.75;;;2.10;;
23140;SDS011;11739;54.750;9.124;2022-11-20T02:48:17;3.08;;;2.20;;
23140;SDS011;11739;54.750;9.124;2022-11-20T02:50:43;2.80;;;2.33;;
23140;SDS011;11739;54.750;9.124;2022-11-20T02:53:10;4.47;;;2.15;;
23140;SDS011;11739;54.750;9.124;2022-11-20T02:55:36;3.50;;;2.35;;
23140;SDS011;11739;54.750;9.124;2022-11-20T02:58:03;3.55;;;2.50;;
23140;SDS011;11739;54.750;9.124;2022-11-20T03:00:29;5.18;;;2.30;;
23140;SDS011;11739;54.750;9.124;2022-11-20T03:02:56;3.50;;;2.65;;
23140;SDS011;11739;54.750;9.124;2022-11-20T03:05:22;4.53;;;2.45;;
23140;SDS011;11739;54.750;9.124;2022-11-20T03:07:49;2.65;;;2.38;;
23140;SDS011;11739;54.750;9.124;2022-11-20T03:10:15;5.13;;;2.63;;
23140;SDS011;11739;54.750;9.124;2022-11-20T03:12:42;2.92;;;2.55;;
23140;SDS011;11739;54.750;9.124;2022-11-20T03:15:09;3.92;;;2.40;;
23140;SDS011;11739;54.750;9.124;2022-11-20T03:17:35;3.17;;;2.25;;
23140;SDS011;11739;54.750;9.124;2022-11-20T03:20:02;4.53;;;2.83;;
23140;SDS011;11739;54.750;9.124;2022-11-20T03:22:29;3.35;;;2.50;;
23140;SDS011;11739;54.750;9.124;2022-11-20T03:24:56;3.15;;;2.42;;
23140;SDS011;11739;54.750;9.124;2022-11-20T03:27:22;4.43;;;2.67;;
23140;SDS011;11739;54.750;9.124;2022-11-20T03:29:49;3.08;;;2.67;;
23140;SDS011;11739;54.750;9.124;2022-11-20T03:32:15;3.33;;;2.50;;
23140;SDS011;11739;54.750;9.124;2022-11-20T03:34:41;2.70;;;2.40;;
23140;SDS011;11739;54.750;9.124;2022-11-20T03:37:08;2.42;;;2.20;;
23140;SDS011;11739;54.750;9.124;2022-11-20T03:39:34;2.90;;;2.60;;
23140;SDS011;11739;54.750;9.124;2022-11-20T03:42:01;2.50;;;2.28;;
23140;SDS011;11739;54.750;9.124;2022-11-20T03:44:27;2.53;;;2.33;;
23140;SDS011;11739;54.750;9.124;2022-11-20T03:46:54;3.92;;;2.53;;
23140;SDS011;11739;54.750;9.124;2022-11-20T03:49:20;3.42;;;2.80;;
23140;SDS011;11739;54.750;9.124;2022-11-20T03:51:47;3.40;;;3.10;;
23140;SDS011;11739;54.750;9.124;2022-11-20T03:54:14;2.90;;;2.70;;
23140;SDS011;11739;54.750;9.124;2022-11-20T03:56:40;4.60;;;3.40;;
23140;SDS011;11739;54.750;9.124;2022-11-20T03:59:09;4.43;;;3.10;;
23140;SDS011;11739;54.750;9.124;2022-11-20T04:01:36;3.03;;;2.72;;
23140;SDS011;11739;54.750;9.124;2022-11-20T04:04:03;5.07;;;3.10;;
23140;SDS011;11739;54.750;9.124;2022-11-20T04:06:34;4.18;;;3.05;;
23140;SDS011;11739;54.750;9.124;2022-11-20T04:09:02;3.13;;;2.80;;
23140;SDS011;11739;54.750;9.124;2022-11-20T04:11:30;6.00;;;3.30;;
23140;SDS011;11739;54.750;9.124;2022-11-20T04:13:59;5.60;;;3.03;;
23140;SDS011;11739;54.750;9.124;2022-11-20T04:16:27;3.42;;;3.03;;
23140;SDS011;11739;54.750;9.124;2022-11-20T04:18:56;3.20;;;2.90;;
23140;SDS011;11739;54.750;9.124;2022-11-20T04:21:24;3.97;;;2.65;;
23140;SDS011;11739;54.750;9.124;2022-11-20T04:23:51;3.47;;;2.50;;
23140;SDS011;11739;54.750;9.124;2022-11-20T04:26:21;2.97;;;2.70;;
23140;SDS011;11739;54.750;9.124;2022-11-20T04:28:49;3.35;;;2.97;;
23140;SDS011;11739;54.750;9.124;2022-11-20T04:31:16;3.92;;;3.40;;
23140;SDS011;11739;54.750;9.124;2022-11-20T04:33:44;3.45;;;3.15;;
23140;SDS011;11739;54.750;9.124;2022-11-20T04:36:12;2.83;;;2.58;;
23140;SDS011;11739;54.750;9.124;2022-11-20T04:38:40;3.22;;;2.72;;
23140;SDS011;11739;54.750;9.124;2022-11-20T04:41:08;4.85;;;2.90;;
23140;SDS011;11739;54.750;9.124;2022-11-20T04:43:40;3.80;;;2.85;;
23140;SDS011;11739;54.750;9.124;2022-11-20T04:46:07;3.88;;;2.83;;
23140;SDS011;11739;54.750;9.124;2022-11-20T04:48:34;3.53;;;2.70;;
23140;SDS011;11739;54.750;9.124;2022-11-20T04:51:02;4.47;;;3.17;;
23140;SDS011;11739;54.750;9.124;2022-11-20T04:53:30;3.33;;;2.88;;
23140;SDS011;11739;54.750;9.124;2022-11-20T04:56:00;3.15;;;2.83;;
23140;SDS011;11739;54.750;9.124;2022-11-20T04:58:27;3.92;;;2.80;;
23140;SDS011;11739;54.750;9.124;2022-11-20T05:01:00;5.40;;;3.33;;
23140;SDS011;11739;54.750;9.124;2022-11-20T05:03:27;4.57;;;3.22;;
23140;SDS011;11739;54.750;9.124;2022-11-20T05:05:53;5.63;;;3.20;;
23140;SDS011;11739;54.750;9.124;2022-11-20T05:08:20;3.75;;;2.90;;
23140;SDS011;11739;54.750;9.124;2022-11-20T05:10:46;3.70;;;3.22;;
23140;SDS011;11739;54.750;9.124;2022-11-20T05:13:13;5.05;;;3.35;;
23140;SDS011;11739;54.750;9.124;2022-11-20T05:15:40;4.22;;;3.00;;
23140;SDS011;11739;54.750;9.124;2022-11-20T05:18:06;3.65;;;2.97;;
23140;SDS011;11739;54.750;9.124;2022-11-20T05:20:33;4.72;;;3.00;;
23140;SDS011;11739;54.750;9.124;2022-11-20T05:22:59;5.90;;;3.80;;
23140;SDS011;11739;54.750;9.124;2022-11-20T05:25:26;3.28;;;2.97;;
23140;SDS011;11739;54.750;9.124;2022-11-20T05:27:52;2.80;;;2.60;;
23140;SDS011;11739;54.750;9.124;2022-11-20T05:30:19;3.08;;;2.78;;
23140;SDS011;11739;54.750;9.124;2022-11-20T05:32:45;3.83;;;2.88;;
23140;SDS011;11739;54.750;9.124;2022-11-20T05:35:12;3.22;;;2.60;;
23140;SDS011;11739;54.750;9.124;2022-11-20T05:37:38;3.53;;;2.78;;
23140;SDS011;11739;54.750;9.124;2022-11-20T05:40:05;2.63;;;2.42;;
23140;SDS011;11739;54.750;9.124;2022-11-20T05:42:32;4.30;;;2.83;;
23140;SDS011;11739;54.750;9.124;2022-11-20T05:44:59;3.42;;;2.70;;
23140;SDS011;11739;54.750;9.124;2022-11-20T05:47:27;3.00;;;2.70;;
23140;SDS011;11739;54.750;9.124;2022-11-20T05:49:54;3.00;;;2.15;;
23140;SDS011;11739;54.750;9.124;2022-11-20T05:52:21;4.90;;;2.53;;
23140;SDS011;11739;54.750;9.124;2022-11-20T05:54:47;3.47;;;2.22;;
23140;SDS011;11739;54.750;9.124;2022-11-20T05:57:13;2.70;;;2.50;;
23140;SDS011;11739;54.750;9.124;2022-11-20T05:59:40;3.55;;;2.40;;
23140;SDS011;11739;54.750;9.124;2022-11-20T06:02:06;2.65;;;2.40;;
23140;SDS011;11739;54.750;9.124;2022-11-20T06:04:33;3.20;;;2.90;;
23140;SDS011;11739;54.750;9.124;2022-11-20T06:06:59;3.50;;;2.80;;
23140;SDS011;11739;54.750;9.124;2022-11-20T06:09:26;2.55;;;2.35;;
23140;SDS011;11739;54.750;9.124;2022-11-20T06:11:52;3.47;;;2.80;;
23140;SDS011;11739;54.750;9.124;2022-11-20T06:14:19;2.55;;;2.35;;
23140;SDS011;11739;54.750;9.124;2022-11-20T06:16:45;2.63;;;2.42;;
23140;SDS011;11739;54.750;9.124;2022-11-20T06:19:12;2.70;;;2.50;;
23140;SDS011;11739;54.750;9.124;2022-11-20T06:21:38;2.72;;;2.53;;
23140;SDS011;11739;54.750;9.124;2022-11-20T06:24:05;2.72;;;2.53;;
23140;SDS011;11739;54.750;9.124;2022-11-20T06:26:31;2.95;;;2.63;;
23140;SDS011;11739;54.750;9.124;2022-11-20T06:28:58;3.00;;;2.70;;
23140;SDS011;11739;54.750;9.124;2022-11-20T06:31:25;2.28;;;2.08;;
23140;SDS011;11739;54.750;9.124;2022-11-20T06:33:52;2.85;;;2.30;;
23140;SDS011;11739;54.750;9.124;2022-11-20T06:36:19;3.00;;;2.70;;
23140;SDS011;11739;54.750;9.124;2022-11-20T06:38:46;2.70;;;2.45;;
23140;SDS011;11739;54.750;9.124;2022-11-20T06:41:14;3.05;;;2.45;;
23140;SDS011;11739;54.750;9.124;2022-11-20T06:43:42;2.85;;;2.65;;
23140;SDS011;11739;54.750;9.124;2022-11-20T06:46:10;3.70;;;2.65;;
23140;SDS011;11739;54.750;9.124;2022-11-20T06:48:37;2.72;;;2.53;;
23140;SDS011;11739;54.750;9.124;2022-11-20T06:51:04;2.97;;;2.60;;
23140;SDS011;11739;54.750;9.124;2022-11-20T06:53:31;3.10;;;2.60;;
23140;SDS011;11739;54.750;9.124;2022-11-20T06:55:58;2.78;;;2.58;;
23140;SDS011;11739;54.750;9.124;2022-11-20T06:58:28;3.53;;;2.70;;
23140;SDS011;11739;54.750;9.124;2022-11-20T07:00:58;3.03;;;2.80;;
23140;SDS011;11739;54.750;9.124;2022-11-20T07:03:26;2.97;;;2.67;;
23140;SDS011;11739;54.750;9.124;2022-11-20T07:05:54;2.60;;;2.40;;
23140;SDS011;11739;54.750;9.124;2022-11-20T07:08:21;3.63;;;2.92;;
23140;SDS011;11739;54.750;9.124;2022-11-20T07:10:48;2.72;;;2.53;;
23140;SDS011;11739;54.750;9.124;2022-11-20T07:13:14;2.50;;;2.30;;
23140;SDS011;11739;54.750;9.124;2022-11-20T07:15:41;2.95;;;2.75;;
23140;SDS011;11739;54.750;9.124;2022-11-20T07:18:07;2.65;;;2.38;;
23140;SDS011;11739;54.750;9.124;2022-11-20T07:20:33;2.53;;;2.33;;
23140;SDS011;11739;54.750;9.124;2022-11-20T07:23:01;2.53;;;2.33;;
23140;SDS011;11739;54.750;9.124;2022-11-20T07:25:27;2.70;;;2.50;;
23140;SDS011;11739;54.750;9.124;2022-11-20T07:27:58;2.70;;;2.50;;
23140;SDS011;11739;54.750;9.124;2022-11-20T07:30:24;2.75;;;2.50;;
23140;SDS011;11739;54.750;9.124;2022-11-20T07:32:51;2.50;;;2.30;;
23140;SDS011;11739;54.750;9.124;2022-11-20T07:35:19;2.78;;;2.58;;
23140;SDS011;11739;54.750;9.124;2022-11-20T07:37:45;3.08;;;2.60;;
23140;SDS011;11739;54.750;9.124;2022-11-20T07:40:13;4.22;;;2.70;;
23140;SDS011;11739;54.750;9.124;2022-11-20T07:42:46;3.22;;;2.92;;
23140;SDS011;11739;54.750;9.124;2022-11-20T07:45:16;3.28;;;2.80;;
23140;SDS011;11739;54.750;9.124;2022-11-20T07:47:43;2.78;;;2.58;;
23140;SDS011;11739;54.750;9.124;2022-11-20T07:50:10;3.05;;;2.45;;
23140;SDS011;11739;54.750;9.124;2022-11-20T07:52:37;2.47;;;2.28;;
23140;SDS011;11739;54.750;9.124;2022-11-20T07:55:03;2.40;;;2.20;;
23140;SDS011;11739;54.750;9.124;2022-11-20T07:57:30;3.28;;;2.60;;
23140;SDS011;11739;54.750;9.124;2022-11-20T07:59:57;2.60;;;2.40;;
23140;SDS011;11739;54.750;9.124;2022-11-20T08:02:23;2.50;;;2.30;;
23140;SDS011;11739;54.750;9.124;2022-11-20T08:04:51;2.80;;;2.60;;
23140;SDS011;11739;54.750;9.124;2022-11-20T08:07:17;2.53;;;2.33;;
23140;SDS011;11739;54.750;9.124;2022-11-20T08:09:44;2.65;;;2.45;;
23140;SDS011;11739;54.750;9.124;2022-11-20T08:12:16;2.75;;;2.55;;
23140;SDS011;11739;54.750;9.124;2022-11-20T08:15:03;2.50;;;2.30;;
23140;SDS011;11739;54.750;9.124;2022-11-20T08:17:38;2.90;;;2.60;;
23140;SDS011;11739;54.750;9.124;2022-11-20T08:20:04;2.70;;;2.50;;
23140;SDS011;11739;54.750;9.124;2022-11-20T08:22:31;2.60;;;2.40;;
23140;SDS011;11739;54.750;9.124;2022-11-20T08:24:57;2.67;;;2.47;;
23140;SDS011;11739;54.750;9.124;2022-11-20T08:27:24;3.03;;;2.53;;
23140;SDS011;11739;54.750;9.124;2022-11-20T08:29:50;2.70;;;2.50;;
23140;SDS011;11739;54.750;9.124;2022-11-20T08:32:17;2.95;;;2.67;;
23140;SDS011;11739;54.750;9.124;2022-11-20T08:34:43;4.35;;;4.05;;
23140;SDS011;11739;54.750;9.124;2022-11-20T08:37:10;3.33;;;3.10;;
23140;SDS011;11739;54.750;9.124;2022-11-20T08:39:36;3.45;;;3.15;;
23140;SDS011;11739;54.750;9.124;2022-11-20T08:42:06;3.28;;;2.95;;
23140;SDS011;11739;54.750;9.124;2022-11-20T08:44:33;2.80;;;2.60;;
23140;SDS011;11739;54.750;9.124;2022-11-20T08:46:59;3.15;;;2.88;;
23140;SDS011;11739;54.750;9.124;2022-11-20T08:49:26;2.97;;;2.78;;
23140;SDS011;11739;54.750;9.124;2022-11-20T08:51:52;3.30;;;3.00;;
23140;SDS011;11739;54.750;9.124;2022-11-20T08:54:21;3.30;;;3.00;;
23140;SDS011;11739;54.750;9.124;2022-11-20T08:56:48;3.70;;;3.38;;
23140;SDS011;11739;54.750;9.124;2022-11-20T08:59:15;3.40;;;2.90;;
23140;SDS011;11739;54.750;9.124;2022-11-20T09:02:01;2.72;;;2.53;;
23140;SDS011;11739;54.750;9.124;2022-11-20T09:04:28;3.05;;;2.85;;
23140;SDS011;11739;54.750;9.124;2022-11-20T09:06:54;3.85;;;2.80;;
23140;SDS011;11739;54.750;9.124;2022-11-20T09:09:21;2.55;;;2.35;;
23140;SDS011;11739;54.750;9.124;2022-11-20T09:11:48;2.90;;;2.65;;
23140;SDS011;11739;54.750;9.124;2022-11-20T09:14:16;2.70;;;2.50;;
23140;SDS011;11739;54.750;9.124;2022-11-20T09:16:44;2.58;;;2.38;;
23140;SDS011;11739;54.750;9.124;2022-11-20T09:19:11;2.67;;;2.47;;
23140;SDS011;11739;54.750;9.124;2022-11-20T09:21:57;2.35;;;2.15;;
23140;SDS011;11739;54.750;9.124;2022-11-20T09:24:25;2.50;;;2.30;;
23140;SDS011;11739;54.750;9.124;2022-11-20T09:26:52;2.55;;;2.35;;
23140;SDS011;11739;54.750;9.124;2022-11-20T09:29:19;2.20;;;2.10;;
23140;SDS011;11739;54.750;9.124;2022-11-20T09:31:46;2.70;;;2.50;;
23140;SDS011;11739;54.750;9.124;2022-11-20T09:34:12;2.60;;;2.40;;
23140;SDS011;11739;54.750;9.124;2022-11-20T09:36:39;4.00;;;2.50;;
23140;SDS011;11739;54.750;9.124;2022-11-20T09:39:05;2.50;;;2.30;;
23140;SDS011;11739;54.750;9.124;2022-11-20T09:47:11;2.40;;;2.22;;
23140;SDS011;11739;54.750;9.124;2022-11-20T09:55:02;4.43;;;3.15;;
23140;SDS011;11739;54.750;9.124;2022-11-20T09:57:32;3.67;;;2.97;;
23140;SDS011;11739;54.750;9.124;2022-11-20T10:00:02;4.90;;;3.50;;
23140;SDS011;11739;54.750;9.124;2022-11-20T10:02:35;6.07;;;3.80;;
23140;SDS011;11739;54.750;9.124;2022-11-20T10:07:51;4.07;;;2.95;;
23140;SDS011;11739;54.750;9.124;2022-11-20T10:10:28;2.97;;;2.67;;
23140;SDS011;11739;54.750;9.124;2022-11-20T10:13:25;2.53;;;2.05;;
23140;SDS011;11739;54.750;9.124;2022-11-20T10:16:25;2.42;;;2.22;;
23140;SDS011;11739;54.750;9.124;2022-11-20T10:30:37;3.47;;;2.42;;
23140;SDS011;11739;54.750;9.124;2022-11-20T10:33:13;3.10;;;2.67;;
23140;SDS011;11739;54.750;9.124;2022-11-20T10:38:21;2.03;;;1.92;;
23140;SDS011;11739;54.750;9.124;2022-11-20T10:40:53;2.40;;;2.20;;
23140;SDS011;11739;54.750;9.124;2022-11-20T10:43:41;2.30;;;2.10;;
23140;SDS011;11739;54.750;9.124;2022-11-20T10:46:10;2.10;;;1.95;;
23140;SDS011;11739;54.750;9.124;2022-11-20T10:48:41;2.42;;;2.00;;
23140;SDS011;11739;54.750;9.124;2022-11-20T10:51:12;2.40;;;2.20;;
23140;SDS011;11739;54.750;9.124;2022-11-20T10:56:16;2.50;;;2.30;;
23140;SDS011;11739;54.750;9.124;2022-11-20T10:58:52;2.47;;;2.30;;
23140;SDS011;11739;54.750;9.124;2022-11-20T11:01:27;3.83;;;2.58;;
23140;SDS011;11739;54.750;9.124;2022-11-20T11:03:54;2.05;;;1.92;;
23140;SDS011;11739;54.750;9.124;2022-11-20T11:06:28;2.50;;;2.30;;
23140;SDS011;11739;54.750;9.124;2022-11-20T11:09:02;2.70;;;2.03;;
23140;SDS011;11739;54.750;9.124;2022-11-20T11:11:35;2.28;;;2.08;;
23140;SDS011;11739;54.750;9.124;2022-11-20T11:14:05;2.25;;;2.05;;
23140;SDS011;11739;54.750;9.124;2022-11-20T11:16:34;2.20;;;2.00;;
23140;SDS011;11739;54.750;9.124;2022-11-20T11:19:11;2.20;;;1.98;;
23140;SDS011;11739;54.750;9.124;2022-11-20T11:21:45;2.28;;;2.10;;
23140;SDS011;11739;54.750;9.124;2022-11-20T11:24:23;2.22;;;2.03;;
23140;SDS011;11739;54.750;9.124;2022-11-20T11:27:11;3.65;;;1.65;;
23140;SDS011;11739;54.750;9.124;2022-11-20T11:29:42;2.40;;;2.10;;
23140;SDS011;11739;54.750;9.124;2022-11-20T11:32:14;2.40;;;2.17;;
23140;SDS011;11739;54.750;9.124;2022-11-20T11:34:42;2.08;;;1.90;;
23140;SDS011;11739;54.750;9.124;2022-11-20T11:37:18;1.70;;;1.60;;
23140;SDS011;11739;54.750;9.124;2022-11-20T11:39:47;1.67;;;1.58;;
23140;SDS011;11739;54.750;9.124;2022-11-20T11:42:29;1.92;;;1.83;;
23140;SDS011;11739;54.750;9.124;2022-11-20T11:44:56;2.17;;;1.90;;
23140;SDS011;11739;54.750;9.124;2022-11-20T11:50:16;2.15;;;1.83;;
23140;SDS011;11739;54.750;9.124;2022-11-20T11:52:49;1.60;;;1.50;;
23140;SDS011;11739;54.750;9.124;2022-11-20T11:55:31;1.98;;;1.70;;
23140;SDS011;11739;54.750;9.124;2022-11-20T12:00:54;2.15;;;1.48;;
23140;SDS011;11739;54.750;9.124;2022-11-20T12:03:27;1.75;;;1.30;;
23140;SDS011;11739;54.750;9.124;2022-11-20T12:05:58;3.55;;;1.38;;
23140;SDS011;11739;54.750;9.124;2022-11-20T12:08:28;1.30;;;1.20;;
23140;SDS011;11739;54.750;9.124;2022-11-20T12:13:39;1.42;;;1.33;;
23140;SDS011;11739;54.750;9.124;2022-11-20T12:16:07;5.13;;;3.95;;
23140;SDS011;11739;54.750;9.124;2022-11-20T12:18:38;7.78;;;5.28;;
23140;SDS011;11739;54.750;9.124;2022-11-20T12:26:33;1.88;;;1.70;;
23140;SDS011;11739;54.750;9.124;2022-11-20T12:29:25;2.78;;;2.58;;
23140;SDS011;11739;54.750;9.124;2022-11-20T12:37:49;1.30;;;1.20;;
23140;SDS011;11739;54.750;9.124;2022-11-20T12:43:19;2.75;;;2.22;;
23140;SDS011;11739;54.750;9.124;2022-11-20T12:54:11;2.30;;;1.60;;
23140;SDS011;11739;54.750;9.124;2022-11-20T12:57:18;1.35;;;1.23;;
23140;SDS011;11739;54.750;9.124;2022-11-20T13:07:35;1.60;;;1.50;;
23140;SDS011;11739;54.750;9.124;2022-11-20T13:10:02;1.67;;;1.58;;
23140;SDS011;11739;54.750;9.124;2022-11-20T13:12:39;2.17;;;1.50;;
23140;SDS011;11739;54.750;9.124;2022-11-20T13:18:03;1.60;;;1.50;;
23140;SDS011;11739;54.750;9.124;2022-11-20T13:20:33;1.60;;;1.40;;
23140;SDS011;11739;54.750;9.124;2022-11-20T13:23:00;1.52;;;1.27;;
23140;SDS011;11739;54.750;9.124;2022-11-20T13:27:58;1.30;;;1.20;;
23140;SDS011;11739;54.750;9.124;2022-11-20T13:30:26;1.42;;;1.33;;
23140;SDS011;11739;54.750;9.124;2022-11-20T13:32:58;2.38;;;1.20;;
23140;SDS011;11739;54.750;9.124;2022-11-20T13:35:34;1.42;;;1.27;;
23140;SDS011;11739;54.750;9.124;2022-11-20T13:38:10;1.30;;;1.20;;
23140;SDS011;11739;54.750;9.124;2022-11-20T13:40:49;1.55;;;1.45;;
23140;SDS011;11739;54.750;9.124;2022-11-20T13:43:42;2.13;;;1.73;;
23140;SDS011;11739;54.750;9.124;2022-11-20T13:46:09;1.15;;;1.13;;
23140;SDS011;11739;54.750;9.124;2022-11-20T13:48:39;1.27;;;1.17;;
23140;SDS011;11739;54.750;9.124;2022-11-20T13:53:57;1.35;;;1.25;;
23140;SDS011;11739;54.750;9.124;2022-11-20T14:02:15;2.25;;;1.38;;
23140;SDS011;11739;54.750;9.124;2022-11-20T14:04:44;1.50;;;1.40;;
23140;SDS011;11739;54.750;9.124;2022-11-20T14:07:13;1.30;;;1.20;;
23140;SDS011;11739;54.750;9.124;2022-11-20T14:09:48;1.75;;;1.65;;
23140;SDS011;11739;54.750;9.124;2022-11-20T14:12:16;2.63;;;2.25;;
23140;SDS011;11739;54.750;9.124;2022-11-20T14:14:48;6.43;;;4.35;;
23140;SDS011;11739;54.750;9.124;2022-11-20T14:19:48;3.50;;;3.20;;
23140;SDS011;11739;54.750;9.124;2022-11-20T14:24:51;2.60;;;2.40;;
23140;SDS011;11739;54.750;9.124;2022-11-20T14:27:32;1.55;;;1.45;;
23140;SDS011;11739;54.750;9.124;2022-11-20T14:30:00;1.60;;;1.50;;
23140;SDS011;11739;54.750;9.124;2022-11-20T14:32:28;1.50;;;1.40;;
23140;SDS011;11739;54.750;9.124;2022-11-20T14:34:55;1.45;;;1.35;;
23140;SDS011;11739;54.750;9.124;2022-11-20T14:37:28;1.50;;;1.40;;
23140;SDS011;11739;54.750;9.124;2022-11-20T14:39:58;1.80;;;1.50;;
23140;SDS011;11739;54.750;9.124;2022-11-20T14:42:27;3.95;;;1.80;;
23140;SDS011;11739;54.750;9.124;2022-11-20T14:44:55;2.03;;;1.50;;
23140;SDS011;11739;54.750;9.124;2022-11-20T14:47:24;1.83;;;1.73;;
23140;SDS011;11739;54.750;9.124;2022-11-20T14:49:53;1.42;;;1.33;;
23140;SDS011;11739;54.750;9.124;2022-11-20T14:52:25;1.70;;;1.60;;
23140;SDS011;11739;54.750;9.124;2022-11-20T14:54:53;1.65;;;1.55;;
23140;SDS011;11739;54.750;9.124;2022-11-20T14:57:28;2.17;;;1.80;;
23140;SDS011;11739;54.750;9.124;2022-11-20T15:00:06;2.58;;;2.25;;
23140;SDS011;11739;54.750;9.124;2022-11-20T15:02:42;2.92;;;2.65;;
23140;SDS011;11739;54.750;9.124;2022-11-20T15:05:12;2.00;;;1.90;;
23140;SDS011;11739;54.750;9.124;2022-11-20T15:07:41;2.10;;;2.00;;
23140;SDS011;11739;54.750;9.124;2022-11-20T15:10:24;2.00;;;1.83;;
23140;SDS011;11739;54.750;9.124;2022-11-20T15:12:57;2.20;;;2.00;;
23140;SDS011;11739;54.750;9.124;2022-11-20T15:15:30;2.15;;;1.80;;
23140;SDS011;11739;54.750;9.124;2022-11-20T15:18:10;2.00;;;1.75;;
23140;SDS011;11739;54.750;9.124;2022-11-20T15:20:39;2.17;;;1.98;;
23140;SDS011;11739;54.750;9.124;2022-11-20T15:23:11;1.70;;;1.58;;
23140;SDS011;11739;54.750;9.124;2022-11-20T15:25:39;1.48;;;1.38;;
23140;SDS011;11739;54.750;9.124;2022-11-20T15:28:16;1.75;;;1.58;;
23140;SDS011;11739;54.750;9.124;2022-11-20T15:30:47;2.65;;;2.08;;
23140;SDS011;11739;54.750;9.124;2022-11-20T15:33:15;1.63;;;1.52;;
23140;SDS011;11739;54.750;9.124;2022-11-20T15:35:42;1.50;;;1.40;;
23140;SDS011;11739;54.750;9.124;2022-11-20T15:38:09;2.35;;;1.60;;
23140;SDS011;11739;54.750;9.124;2022-11-20T15:40:35;1.70;;;1.30;;
23140;SDS011;11739;54.750;9.124;2022-11-20T15:43:02;1.70;;;1.55;;
23140;SDS011;11739;54.750;9.124;2022-11-20T15:45:38;1.73;;;1.63;;
23140;SDS011;11739;54.750;9.124;2022-11-20T15:48:34;1.40;;;1.30;;
23140;SDS011;11739;54.750;9.124;2022-11-20T15:53:35;1.90;;;1.77;;
23140;SDS011;11739;54.750;9.124;2022-11-20T15:56:02;2.20;;;2.00;;
23140;SDS011;11739;54.750;9.124;2022-11-20T15:58:29;2.00;;;1.90;;
23140;SDS011;11739;54.750;9.124;2022-11-20T16:00:56;2.47;;;2.25;;
23140;SDS011;11739;54.750;9.124;2022-11-20T16:03:22;3.97;;;2.60;;
23140;SDS011;11739;54.750;9.124;2022-11-20T16:05:49;3.20;;;2.25;;
23140;SDS011;11739;54.750;9.124;2022-11-20T16:08:15;2.72;;;2.30;;
23140;SDS011;11739;54.750;9.124;2022-11-20T16:10:42;2.60;;;2.40;;
23140;SDS011;11739;54.750;9.124;2022-11-20T16:13:15;3.13;;;2.78;;
23140;SDS011;11739;54.750;9.124;2022-11-20T16:16:03;2.85;;;2.60;;
23140;SDS011;11739;54.750;9.124;2022-11-20T16:18:32;3.10;;;2.60;;
23140;SDS011;11739;54.750;9.124;2022-11-20T16:20:59;2.80;;;2.55;;
23140;SDS011;11739;54.750;9.124;2022-11-20T16:23:26;4.18;;;2.50;;
23140;SDS011;11739;54.750;9.124;2022-11-20T16:25:52;3.83;;;3.10;;
23140;SDS011;11739;54.750;9.124;2022-11-20T16:28:19;2.50;;;2.30;;
23140;SDS011;11739;54.750;9.124;2022-11-20T16:30:45;4.07;;;3.08;;
23140;SDS011;11739;54.750;9.124;2022-11-20T16:33:12;3.00;;;2.65;;
23140;SDS011;11739;54.750;9.124;2022-11-20T16:35:40;3.15;;;2.80;;
23140;SDS011;11739;54.750;9.124;2022-11-20T16:38:07;4.18;;;3.70;;